sensor_id;sensor_type;location;lat;lon;timestamp;pressure;altitude;pressure_sealevel;temperature;humidity
42297;BME280;28985;47.456;19.016;2022-07-03T00:01:21;100696.13;;;19.27;65.76
42297;BME280;28985;47.456;19.016;2022-07-03T00:03:48;100692.53;;;19.26;65.04
42297;BME280;28985;47.456;19.016;2022-07-03T00:06:14;100703.63;;;19.25;65.97
42297;BME280;28985;47.456;19.016;2022-07-03T00:08:41;100692.88;;;19.23;66.14
42297;BME280;28985;47.456;19.016;2022-07-03T00:11:08;100694.13;;;19.21;66.29
42297;BME280;28985;47.456;19.016;2022-07-03T00:13:35;100683.13;;;19.14;67.00
42297;BME280;28985;47.456;19.016;2022-07-03T00:16:02;100690.84;;;19.10;67.25
42297;BME280;28985;47.456;19.016;2022-07-03T00:18:29;100692.69;;;19.10;67.52
42297;BME280;28985;47.456;19.016;2022-07-03T00:21:04;100694.59;;;19.09;66.40
42297;BME280;28985;47.456;19.016;2022-07-03T00:23:44;100692.06;;;19.08;67.22
42297;BME280;28985;47.456;19.016;2022-07-03T00:26:16;100702.09;;;19.07;66.85
42297;BME280;28985;47.456;19.016;2022-07-03T00:28:45;100699.56;;;19.05;66.50
42297;BME280;28985;47.456;19.016;2022-07-03T00:31:12;100694.44;;;19.02;68.69
42297;BME280;28985;47.456;19.016;2022-07-03T00:33:40;100691.06;;;19.00;67.58
42297;BME280;28985;47.456;19.016;2022-07-03T00:36:07;100683.72;;;19.01;67.66
42297;BME280;28985;47.456;19.016;2022-07-03T00:38:34;100680.34;;;18.99;68.75
42297;BME280;28985;47.456;19.016;2022-07-03T00:41:02;100683.63;;;18.94;67.83
42297;BME280;28985;47.456;19.016;2022-07-03T00:43:29;100681.91;;;18.93;68.05
42297;BME280;28985;47.456;19.016;2022-07-03T00:46:06;100687.28;;;18.86;67.75
42297;BME280;28985;47.456;19.016;2022-07-03T00:48:36;100684.91;;;18.83;68.74
42297;BME280;28985;47.456;19.016;2022-07-03T00:51:05;100679.63;;;18.82;68.09
42297;BME280;28985;47.456;19.016;2022-07-03T00:53:33;100685.47;;;18.78;68.15
42297;BME280;28985;47.456;19.016;2022-07-03T00:56:03;100685.81;;;18.75;68.42
42297;BME280;28985;47.456;19.016;2022-07-03T00:58:31;100685.16;;;18.73;67.83
42297;BME280;28985;47.456;19.016;2022-07-03T01:01:00;100680.94;;;18.71;68.17
42297;BME280;28985;47.456;19.016;2022-07-03T01:03:28;100675.66;;;18.69;68.55
42297;BME280;28985;47.456;19.016;2022-07-03T01:05:57;100680.28;;;18.69;68.94
42297;BME280;28985;47.456;19.016;2022-07-03T01:08:49;100683.00;;;18.69;69.39
42297;BME280;28985;47.456;19.016;2022-07-03T01:11:28;100684.22;;;18.66;68.64
42297;BME280;28985;47.456;19.016;2022-07-03T01:16:41;100670.84;;;18.56;69.22
42297;BME280;28985;47.456;19.016;2022-07-03T01:19:38;100671.03;;;18.55;70.77
42297;BME280;28985;47.456;19.016;2022-07-03T01:24:53;100666.94;;;18.50;69.61
42297;BME280;28985;47.456;19.016;2022-07-03T01:27:37;100659.63;;;18.51;69.88
42297;BME280;28985;47.456;19.016;2022-07-03T01:30:10;100662.66;;;18.33;70.68
42297;BME280;28985;47.456;19.016;2022-07-03T01:32:54;100658.53;;;18.14;71.22
42297;BME280;28985;47.456;19.016;2022-07-03T01:36:13;100664.00;;;18.05;71.47
42297;BME280;28985;47.456;19.016;2022-07-03T01:38:14;100660.66;;;17.95;72.15
42297;BME280;28985;47.456;19.016;2022-07-03T01:40:42;100661.03;;;17.92;71.97
42297;BME280;28985;47.456;19.016;2022-07-03T01:43:11;100657.28;;;17.93;71.78
42297;BME280;28985;47.456;19.016;2022-07-03T01:45:47;100657.84;;;17.88;71.66
42297;BME280;28985;47.456;19.016;2022-07-03T01:48:15;100660.03;;;17.84;71.83
42297;BME280;28985;47.456;19.016;2022-07-03T01:50:42;100660.25;;;17.83;72.46
42297;BME280;28985;47.456;19.016;2022-07-03T01:53:10;100662.41;;;17.88;71.86
42297;BME280;28985;47.456;19.016;2022-07-03T01:55:39;100662.25;;;17.89;71.54
42297;BME280;28985;47.456;19.016;2022-07-03T01:58:06;100664.78;;;17.91;71.64
42297;BME280;28985;47.456;19.016;2022-07-03T02:00:44;100652.19;;;17.90;71.83
42297;BME280;28985;47.456;19.016;2022-07-03T02:03:21;100664.59;;;17.92;71.90
42297;BME280;28985;47.456;19.016;2022-07-03T02:09:01;100659.16;;;17.92;71.81
42297;BME280;28985;47.456;19.016;2022-07-03T02:11:48;100658.31;;;17.92;72.15
42297;BME280;28985;47.456;19.016;2022-07-03T02:14:36;100659.69;;;17.88;72.04
42297;BME280;28985;47.456;19.016;2022-07-03T02:17:08;100662.28;;;17.81;72.59
42297;BME280;28985;47.456;19.016;2022-07-03T02:22:11;100654.69;;;17.68;72.96
42297;BME280;28985;47.456;19.016;2022-07-03T02:24:43;100653.00;;;17.67;73.41
42297;BME280;28985;47.456;19.016;2022-07-03T02:27:20;100651.81;;;17.61;73.62
42297;BME280;28985;47.456;19.016;2022-07-03T02:30:05;100651.00;;;17.52;74.06
42297;BME280;28985;47.456;19.016;2022-07-03T02:32:37;100655.09;;;17.48;74.20
42297;BME280;28985;47.456;19.016;2022-07-03T02:35:06;100658.84;;;17.47;73.79
42297;BME280;28985;47.456;19.016;2022-07-03T02:37:39;100654.63;;;17.44;73.46
42297;BME280;28985;47.456;19.016;2022-07-03T02:40:08;100654.78;;;17.43;73.73
42297;BME280;28985;47.456;19.016;2022-07-03T02:43:02;100659.22;;;17.44;74.01
42297;BME280;28985;47.456;19.016;2022-07-03T02:45:49;100661.09;;;17.43;74.35
42297;BME280;28985;47.456;19.016;2022-07-03T02:48:31;100664.84;;;17.42;74.28
42297;BME280;28985;47.456;19.016;2022-07-03T02:51:06;100674.69;;;17.43;74.78
42297;BME280;28985;47.456;19.016;2022-07-03T02:54:09;100670.78;;;17.46;74.82
42297;BME280;28985;47.456;19.016;2022-07-03T02:57:08;100673.66;;;17.44;74.69
42297;BME280;28985;47.456;19.016;2022-07-03T02:59:57;100679.81;;;17.47;74.80
42297;BME280;28985;47.456;19.016;2022-07-03T03:05:15;100665.66;;;17.51;74.46
42297;BME280;28985;47.456;19.016;2022-07-03T03:10:21;100661.72;;;17.54;74.54
42297;BME280;28985;47.456;19.016;2022-07-03T03:12:55;100660.69;;;17.55;74.53
42297;BME280;28985;47.456;19.016;2022-07-03T03:15:26;100665.97;;;17.56;74.69
42297;BME280;28985;47.456;19.016;2022-07-03T03:17:56;100672.44;;;17.55;74.82
42297;BME280;28985;47.456;19.016;2022-07-03T03:20:31;100674.31;;;17.55;74.84
42297;BME280;28985;47.456;19.016;2022-07-03T03:23:19;100689.78;;;17.54;75.02
42297;BME280;28985;47.456;19.016;2022-07-03T03:25:50;100675.19;;;17.55;75.24
42297;BME280;28985;47.456;19.016;2022-07-03T03:28:17;100668.69;;;17.56;75.23
42297;BME280;28985;47.456;19.016;2022-07-03T03:30:43;100668.53;;;17.58;75.78
42297;BME280;28985;47.456;19.016;2022-07-03T03:33:11;100661.69;;;17.62;75.57
42297;BME280;28985;47.456;19.016;2022-07-03T03:35:39;100666.97;;;17.64;75.58
42297;BME280;28985;47.456;19.016;2022-07-03T03:38:06;100661.84;;;17.61;75.29
42297;BME280;28985;47.456;19.016;2022-07-03T03:40:33;100664.25;;;17.64;75.65
42297;BME280;28985;47.456;19.016;2022-07-03T03:43:02;100664.91;;;17.66;75.42
42297;BME280;28985;47.456;19.016;2022-07-03T03:45:29;100658.09;;;17.70;75.67
42297;BME280;28985;47.456;19.016;2022-07-03T03:47:55;100665.03;;;17.73;75.71
42297;BME280;28985;47.456;19.016;2022-07-03T03:50:22;100658.94;;;17.70;75.74
42297;BME280;28985;47.456;19.016;2022-07-03T03:52:49;100661.28;;;17.74;75.51
42297;BME280;28985;47.456;19.016;2022-07-03T03:55:16;100650.06;;;17.77;75.48
42297;BME280;28985;47.456;19.016;2022-07-03T03:57:43;100652.25;;;17.81;75.47
42297;BME280;28985;47.456;19.016;2022-07-03T04:00:10;100648.97;;;17.86;75.84
42297;BME280;28985;47.456;19.016;2022-07-03T04:02:36;100648.47;;;17.82;75.65
42297;BME280;28985;47.456;19.016;2022-07-03T04:05:03;100654.59;;;17.84;75.71
42297;BME280;28985;47.456;19.016;2022-07-03T04:07:30;100662.59;;;17.86;76.30
42297;BME280;28985;47.456;19.016;2022-07-03T04:09:57;100666.16;;;17.87;76.78
42297;BME280;28985;47.456;19.016;2022-07-03T04:12:23;100672.28;;;17.89;76.79
42297;BME280;28985;47.456;19.016;2022-07-03T04:14:50;100663.56;;;17.93;76.77
42297;BME280;28985;47.456;19.016;2022-07-03T04:17:16;100670.53;;;17.96;76.89
42297;BME280;28985;47.456;19.016;2022-07-03T04:19:43;100667.09;;;18.02;76.70
42297;BME280;28985;47.456;19.016;2022-07-03T04:22:11;100668.47;;;18.06;76.44
42297;BME280;28985;47.456;19.016;2022-07-03T04:24:38;100672.16;;;18.14;76.15
42297;BME280;28985;47.456;19.016;2022-07-03T04:27:04;100669.09;;;18.17;76.16
42297;BME280;28985;47.456;19.016;2022-07-03T04:29:31;100675.00;;;18.20;76.33
42297;BME280;28985;47.456;19.016;2022-07-03T04:31:57;100669.41;;;18.22;76.57
42297;BME280;28985;47.456;19.016;2022-07-03T04:34:24;100660.66;;;18.27;76.54
42297;BME280;28985;47.456;19.016;2022-07-03T04:36:50;100660.25;;;18.38;76.76
42297;BME280;28985;47.456;19.016;2022-07-03T04:39:17;100658.69;;;18.44;76.62
42297;BME280;28985;47.456;19.016;2022-07-03T04:41:44;100656.06;;;18.50;76.84
42297;BME280;28985;47.456;19.016;2022-07-03T04:44:10;100651.38;;;18.59;76.56
42297;BME280;28985;47.456;19.016;2022-07-03T04:46:37;100649.25;;;18.70;76.52
42297;BME280;28985;47.456;19.016;2022-07-03T04:49:03;100657.16;;;18.79;76.46
42297;BME280;28985;47.456;19.016;2022-07-03T04:51:30;100649.56;;;18.90;76.71
42297;BME280;28985;47.456;19.016;2022-07-03T04:53:56;100649.09;;;19.01;76.01
42297;BME280;28985;47.456;19.016;2022-07-03T04:56:23;100643.75;;;19.08;75.63
42297;BME280;28985;47.456;19.016;2022-07-03T04:58:50;100646.25;;;19.18;75.14
42297;BME280;28985;47.456;19.016;2022-07-03T05:01:16;100647.19;;;19.25;75.61
42297;BME280;28985;47.456;19.016;2022-07-03T05:03:43;100643.28;;;19.35;75.21
42297;BME280;28985;47.456;19.016;2022-07-03T05:06:09;100633.13;;;19.43;75.12
42297;BME280;28985;47.456;19.016;2022-07-03T05:08:36;100630.13;;;19.53;75.49
42297;BME280;28985;47.456;19.016;2022-07-03T05:11:03;100638.66;;;19.65;75.05
42297;BME280;28985;47.456;19.016;2022-07-03T05:13:29;100634.09;;;19.72;74.92
42297;BME280;28985;47.456;19.016;2022-07-03T05:15:56;100639.25;;;19.82;74.92
42297;BME280;28985;47.456;19.016;2022-07-03T05:18:22;100638.97;;;19.92;74.60
42297;BME280;28985;47.456;19.016;2022-07-03T05:20:49;100641.22;;;20.04;73.94
42297;BME280;28985;47.456;19.016;2022-07-03T05:23:15;100631.03;;;20.12;72.86
42297;BME280;28985;47.456;19.016;2022-07-03T05:25:42;100635.31;;;20.22;72.47
42297;BME280;28985;47.456;19.016;2022-07-03T05:28:09;100636.88;;;20.31;70.79
42297;BME280;28985;47.456;19.016;2022-07-03T05:30:35;100636.91;;;20.38;71.40
42297;BME280;28985;47.456;19.016;2022-07-03T05:33:02;100633.88;;;20.48;71.82
42297;BME280;28985;47.456;19.016;2022-07-03T05:35:29;100631.84;;;20.57;71.32
42297;BME280;28985;47.456;19.016;2022-07-03T05:37:55;100636.09;;;20.66;70.79
42297;BME280;28985;47.456;19.016;2022-07-03T05:40:22;100632.19;;;20.75;71.13
42297;BME280;28985;47.456;19.016;2022-07-03T05:42:48;100629.13;;;20.85;71.42
42297;BME280;28985;47.456;19.016;2022-07-03T05:45:15;100626.03;;;20.95;69.46
42297;BME280;28985;47.456;19.016;2022-07-03T05:47:41;100627.34;;;21.06;68.10
42297;BME280;28985;47.456;19.016;2022-07-03T05:50:09;100625.53;;;21.13;67.92
42297;BME280;28985;47.456;19.016;2022-07-03T05:52:35;100629.97;;;21.21;68.28
42297;BME280;28985;47.456;19.016;2022-07-03T05:55:03;100631.13;;;21.33;69.07
42297;BME280;28985;47.456;19.016;2022-07-03T05:57:30;100633.66;;;21.42;67.92
42297;BME280;28985;47.456;19.016;2022-07-03T05:59:59;100633.72;;;21.49;68.07
42297;BME280;28985;47.456;19.016;2022-07-03T06:02:26;100633.72;;;21.55;66.95
42297;BME280;28985;47.456;19.016;2022-07-03T06:04:52;100635.25;;;21.65;68.03
42297;BME280;28985;47.456;19.016;2022-07-03T06:07:19;100628.56;;;21.74;68.31
42297;BME280;28985;47.456;19.016;2022-07-03T06:09:45;100633.00;;;21.82;66.83
42297;BME280;28985;47.456;19.016;2022-07-03T06:12:14;100631.78;;;21.91;67.37
42297;BME280;28985;47.456;19.016;2022-07-03T06:14:41;100636.66;;;22.03;65.24
42297;BME280;28985;47.456;19.016;2022-07-03T06:17:07;100639.63;;;22.08;63.07
42297;BME280;28985;47.456;19.016;2022-07-03T06:19:34;100641.53;;;22.14;63.96
42297;BME280;28985;47.456;19.016;2022-07-03T06:22:00;100641.75;;;22.19;64.00
42297;BME280;28985;47.456;19.016;2022-07-03T06:24:27;100648.09;;;22.26;63.71
42297;BME280;28985;47.456;19.016;2022-07-03T06:26:54;100648.72;;;22.35;63.88
42297;BME280;28985;47.456;19.016;2022-07-03T06:29:20;100652.75;;;22.46;62.18
42297;BME280;28985;47.456;19.016;2022-07-03T06:31:49;100648.78;;;22.56;61.25
42297;BME280;28985;47.456;19.016;2022-07-03T06:34:16;100644.13;;;22.63;60.78
42297;BME280;28985;47.456;19.016;2022-07-03T06:36:42;100649.84;;;22.68;60.45
42297;BME280;28985;47.456;19.016;2022-07-03T06:39:09;100646.03;;;22.76;60.68
42297;BME280;28985;47.456;19.016;2022-07-03T06:41:36;100641.38;;;22.83;61.11
42297;BME280;28985;47.456;19.016;2022-07-03T06:44:02;100635.44;;;22.93;61.77
42297;BME280;28985;47.456;19.016;2022-07-03T06:46:29;100626.97;;;23.01;61.82
42297;BME280;28985;47.456;19.016;2022-07-03T06:48:55;100635.41;;;23.06;62.00
42297;BME280;28985;47.456;19.016;2022-07-03T06:51:22;100634.78;;;23.11;61.39
42297;BME280;28985;47.456;19.016;2022-07-03T06:53:49;100637.09;;;23.21;61.13
42297;BME280;28985;47.456;19.016;2022-07-03T06:56:15;100633.69;;;23.26;60.15
42297;BME280;28985;47.456;19.016;2022-07-03T06:58:42;100631.78;;;23.33;60.67
42297;BME280;28985;47.456;19.016;2022-07-03T07:01:08;100629.88;;;23.40;61.25
42297;BME280;28985;47.456;19.016;2022-07-03T07:03:35;100624.53;;;23.52;63.43
42297;BME280;28985;47.456;19.016;2022-07-03T07:06:02;100619.63;;;23.61;60.25
42297;BME280;28985;47.456;19.016;2022-07-03T07:08:28;100613.44;;;23.72;61.96
42297;BME280;28985;47.456;19.016;2022-07-03T07:10:55;100615.94;;;23.81;61.03
42297;BME280;28985;47.456;19.016;2022-07-03T07:13:21;100616.13;;;23.86;59.20
42297;BME280;28985;47.456;19.016;2022-07-03T07:15:48;100612.06;;;23.95;60.99
42297;BME280;28985;47.456;19.016;2022-07-03T07:18:14;100618.56;;;24.01;60.27
42297;BME280;28985;47.456;19.016;2022-07-03T07:20:41;100614.31;;;24.05;59.12
42297;BME280;28985;47.456;19.016;2022-07-03T07:23:08;100617.28;;;24.04;57.27
42297;BME280;28985;47.456;19.016;2022-07-03T07:25:34;100612.00;;;24.09;57.75
42297;BME280;28985;47.456;19.016;2022-07-03T07:28:08;100614.91;;;24.14;58.10
42297;BME280;28985;47.456;19.016;2022-07-03T07:30:35;100612.13;;;24.21;56.21
42297;BME280;28985;47.456;19.016;2022-07-03T07:33:02;100615.28;;;24.24;56.82
42297;BME280;28985;47.456;19.016;2022-07-03T07:35:29;100617.34;;;24.29;56.03
42297;BME280;28985;47.456;19.016;2022-07-03T07:37:55;100620.44;;;24.39;57.99
42297;BME280;28985;47.456;19.016;2022-07-03T07:40:22;100616.13;;;24.50;59.05
42297;BME280;28985;47.456;19.016;2022-07-03T07:42:49;100624.72;;;24.61;58.50
42297;BME280;28985;47.456;19.016;2022-07-03T07:45:15;100624.81;;;24.73;58.12
42297;BME280;28985;47.456;19.016;2022-07-03T07:47:42;100624.94;;;24.85;57.38
42297;BME280;28985;47.456;19.016;2022-07-03T07:50:09;100627.22;;;24.88;54.02
42297;BME280;28985;47.456;19.016;2022-07-03T07:52:36;100626.34;;;24.94;56.00
42297;BME280;28985;47.456;19.016;2022-07-03T07:55:04;100630.69;;;25.02;55.72
42297;BME280;28985;47.456;19.016;2022-07-03T07:57:36;100626.22;;;25.07;56.03
42297;BME280;28985;47.456;19.016;2022-07-03T08:00:11;100625.66;;;25.17;55.14
42297;BME280;28985;47.456;19.016;2022-07-03T08:02:38;100626.44;;;25.25;54.59
42297;BME280;28985;47.456;19.016;2022-07-03T08:05:24;100624.75;;;25.42;56.72
42297;BME280;28985;47.456;19.016;2022-07-03T08:08:10;100623.78;;;25.55;57.95
42297;BME280;28985;47.456;19.016;2022-07-03T08:10:48;100620.81;;;25.69;56.79
42297;BME280;28985;47.456;19.016;2022-07-03T08:13:17;100619.31;;;25.85;57.02
42297;BME280;28985;47.456;19.016;2022-07-03T08:15:45;100623.59;;;25.99;56.28
42297;BME280;28985;47.456;19.016;2022-07-03T08:18:13;100618.81;;;26.07;53.71
42297;BME280;28985;47.456;19.016;2022-07-03T08:20:40;100619.41;;;26.09;50.66
42297;BME280;28985;47.456;19.016;2022-07-03T08:23:06;100624.47;;;26.12;50.26
42297;BME280;28985;47.456;19.016;2022-07-03T08:25:33;100619.44;;;26.21;51.59
42297;BME280;28985;47.456;19.016;2022-07-03T08:28:00;100618.75;;;26.25;50.02
42297;BME280;28985;47.456;19.016;2022-07-03T08:30:26;100618.66;;;26.32;49.97
42297;BME280;28985;47.456;19.016;2022-07-03T08:32:55;100620.03;;;26.42;51.29
42297;BME280;28985;47.456;19.016;2022-07-03T08:35:22;100622.19;;;26.51;51.82
42297;BME280;28985;47.456;19.016;2022-07-03T08:37:49;100621.09;;;26.64;49.35
42297;BME280;28985;47.456;19.016;2022-07-03T08:40:18;100619.31;;;26.70;49.40
42297;BME280;28985;47.456;19.016;2022-07-03T08:45:14;100619.91;;;26.72;48.41
42297;BME280;28985;47.456;19.016;2022-07-03T08:47:42;100616.53;;;26.82;48.63
42297;BME280;28985;47.456;19.016;2022-07-03T08:50:14;100622.69;;;26.84;47.46
42297;BME280;28985;47.456;19.016;2022-07-03T08:52:41;100616.06;;;26.85;47.12
42297;BME280;28985;47.456;19.016;2022-07-03T08:55:09;100613.81;;;26.94;47.60
42297;BME280;28985;47.456;19.016;2022-07-03T08:57:37;100614.16;;;26.98;45.78
42297;BME280;28985;47.456;19.016;2022-07-03T09:00:07;100612.22;;;27.10;46.91
42297;BME280;28985;47.456;19.016;2022-07-03T09:02:34;100598.50;;;27.27;48.93
42297;BME280;28985;47.456;19.016;2022-07-03T09:05:01;100600.47;;;27.44;46.29
42297;BME280;28985;47.456;19.016;2022-07-03T09:07:34;100597.69;;;27.56;45.24
42297;BME280;28985;47.456;19.016;2022-07-03T09:10:03;100600.94;;;27.65;47.89
42297;BME280;28985;47.456;19.016;2022-07-03T09:12:31;100597.75;;;27.73;44.17
42297;BME280;28985;47.456;19.016;2022-07-03T09:15:02;100588.31;;;27.86;44.23
42297;BME280;28985;47.456;19.016;2022-07-03T09:17:30;100588.75;;;27.95;43.43
42297;BME280;28985;47.456;19.016;2022-07-03T09:19:59;100591.44;;;28.07;42.71
42297;BME280;28985;47.456;19.016;2022-07-03T09:22:33;100590.19;;;28.14;42.11
42297;BME280;28985;47.456;19.016;2022-07-03T09:27:30;100581.63;;;28.28;41.12
42297;BME280;28985;47.456;19.016;2022-07-03T09:30:09;100586.72;;;28.36;40.90
42297;BME280;28985;47.456;19.016;2022-07-03T09:35:25;100580.91;;;28.55;39.12
42297;BME280;28985;47.456;19.016;2022-07-03T09:37:57;100579.91;;;28.61;38.81
42297;BME280;28985;47.456;19.016;2022-07-03T09:41:02;100575.88;;;28.69;39.82
42297;BME280;28985;47.456;19.016;2022-07-03T09:43:24;100573.25;;;28.79;39.29
42297;BME280;28985;47.456;19.016;2022-07-03T09:45:54;100565.63;;;28.87;39.97
42297;BME280;28985;47.456;19.016;2022-07-03T09:53:49;100553.78;;;29.14;37.75
42297;BME280;28985;47.456;19.016;2022-07-03T09:56:42;100555.13;;;29.33;38.26
42297;BME280;28985;47.456;19.016;2022-07-03T09:59:13;100558.19;;;29.37;36.26
42297;BME280;28985;47.456;19.016;2022-07-03T10:01:45;100552.19;;;29.45;36.53
42297;BME280;28985;47.456;19.016;2022-07-03T10:04:17;100550.50;;;29.44;34.34
42297;BME280;28985;47.456;19.016;2022-07-03T10:06:58;100552.28;;;29.51;34.57
42297;BME280;28985;47.456;19.016;2022-07-03T10:09:27;100540.00;;;29.69;36.10
42297;BME280;28985;47.456;19.016;2022-07-03T10:11:55;100546.22;;;29.81;35.75
42297;BME280;28985;47.456;19.016;2022-07-03T10:14:28;100548.97;;;29.81;34.94
42297;BME280;28985;47.456;19.016;2022-07-03T10:16:55;100534.09;;;29.93;36.46
42297;BME280;28985;47.456;19.016;2022-07-03T10:19:29;100528.34;;;30.05;36.26
42297;BME280;28985;47.456;19.016;2022-07-03T10:21:59;100530.38;;;30.09;34.11
42297;BME280;28985;47.456;19.016;2022-07-03T10:24:29;100532.97;;;30.21;33.47
42297;BME280;28985;47.456;19.016;2022-07-03T10:26:57;100526.63;;;30.26;33.07
42297;BME280;28985;47.456;19.016;2022-07-03T10:29:26;100521.69;;;30.33;33.47
42297;BME280;28985;47.456;19.016;2022-07-03T10:31:55;100516.75;;;30.46;33.55
42297;BME280;28985;47.456;19.016;2022-07-03T10:34:25;100522.38;;;30.56;34.21
42297;BME280;28985;47.456;19.016;2022-07-03T10:37:00;100509.63;;;30.65;33.32
42297;BME280;28985;47.456;19.016;2022-07-03T10:40:22;100511.91;;;30.68;32.84
42297;BME280;28985;47.456;19.016;2022-07-03T10:43:02;100513.69;;;30.95;33.87
42297;BME280;28985;47.456;19.016;2022-07-03T10:46:13;100504.28;;;31.07;32.22
42297;BME280;28985;47.456;19.016;2022-07-03T10:51:26;100499.34;;;31.25;31.31
42297;BME280;28985;47.456;19.016;2022-07-03T10:54:21;100501.56;;;31.23;32.04
42297;BME280;28985;47.456;19.016;2022-07-03T11:02:22;100489.97;;;31.46;31.61
42297;BME280;28985;47.456;19.016;2022-07-03T11:08:02;100484.97;;;31.64;32.00
42297;BME280;28985;47.456;19.016;2022-07-03T11:15:51;100484.16;;;32.05;30.37
42297;BME280;28985;47.456;19.016;2022-07-03T11:18:28;100470.81;;;32.07;30.22
42297;BME280;28985;47.456;19.016;2022-07-03T11:21:25;100474.38;;;32.18;29.94
42297;BME280;28985;47.456;19.016;2022-07-03T11:24:03;100470.22;;;32.15;29.80
42297;BME280;28985;47.456;19.016;2022-07-03T11:26:34;100464.38;;;32.22;30.67
42297;BME280;28985;47.456;19.016;2022-07-03T11:29:00;100461.31;;;32.24;30.29
42297;BME280;28985;47.456;19.016;2022-07-03T11:31:27;100475.75;;;32.36;30.15
42297;BME280;28985;47.456;19.016;2022-07-03T11:36:29;100465.72;;;32.40;30.08
42297;BME280;28985;47.456;19.016;2022-07-03T11:41:30;100453.69;;;32.55;31.01
42297;BME280;28985;47.456;19.016;2022-07-03T11:44:02;100455.59;;;32.71;30.86
42297;BME280;28985;47.456;19.016;2022-07-03T11:46:30;100447.22;;;32.76;30.80
42297;BME280;28985;47.456;19.016;2022-07-03T11:49:13;100441.59;;;32.86;30.54
42297;BME280;28985;47.456;19.016;2022-07-03T11:51:42;100444.06;;;32.98;30.60
42297;BME280;28985;47.456;19.016;2022-07-03T11:54:09;100438.78;;;32.91;30.46
42297;BME280;28985;47.456;19.016;2022-07-03T11:56:36;100428.44;;;32.97;31.27
42297;BME280;28985;47.456;19.016;2022-07-03T11:59:06;100427.81;;;33.11;30.87
42297;BME280;28985;47.456;19.016;2022-07-03T12:01:34;100425.78;;;33.21;30.86
42297;BME280;28985;47.456;19.016;2022-07-03T12:04:16;100423.09;;;33.51;30.19
42297;BME280;28985;47.456;19.016;2022-07-03T12:06:51;100421.06;;;33.62;29.47
42297;BME280;28985;47.456;19.016;2022-07-03T12:09:30;100419.59;;;33.70;29.61
42297;BME280;28985;47.456;19.016;2022-07-03T12:12:10;100418.97;;;33.73;29.17
42297;BME280;28985;47.456;19.016;2022-07-03T12:14:48;100430.19;;;33.68;29.07
42297;BME280;28985;47.456;19.016;2022-07-03T12:17:17;100405.44;;;33.61;29.51
42297;BME280;28985;47.456;19.016;2022-07-03T12:19:51;100402.59;;;33.66;30.15
42297;BME280;28985;47.456;19.016;2022-07-03T12:25:03;100397.69;;;33.82;28.88
42297;BME280;28985;47.456;19.016;2022-07-03T12:27:32;100387.84;;;33.90;29.51
42297;BME280;28985;47.456;19.016;2022-07-03T12:29:59;100396.94;;;34.01;27.98
42297;BME280;28985;47.456;19.016;2022-07-03T12:32:26;100394.59;;;34.13;27.91
42297;BME280;28985;47.456;19.016;2022-07-03T12:34:54;100391.03;;;34.32;28.18
42297;BME280;28985;47.456;19.016;2022-07-03T12:37:41;100393.34;;;34.25;27.29
42297;BME280;28985;47.456;19.016;2022-07-03T12:40:09;100380.41;;;34.34;27.52
42297;BME280;28985;47.456;19.016;2022-07-03T12:43:02;100383.25;;;34.29;27.23
42297;BME280;28985;47.456;19.016;2022-07-03T12:45:29;100380.22;;;34.25;26.60
42297;BME280;28985;47.456;19.016;2022-07-03T12:48:01;100379.31;;;34.30;26.78
42297;BME280;28985;47.456;19.016;2022-07-03T12:50:46;100377.91;;;34.57;26.72
42297;BME280;28985;47.456;19.016;2022-07-03T12:53:26;100380.69;;;34.76;25.03
42297;BME280;28985;47.456;19.016;2022-07-03T12:55:53;100385.84;;;34.88;25.97
42297;BME280;28985;47.456;19.016;2022-07-03T12:58:23;100372.22;;;34.81;25.52
42297;BME280;28985;47.456;19.016;2022-07-03T13:01:33;100380.41;;;34.78;25.13
42297;BME280;28985;47.456;19.016;2022-07-03T13:04:00;100376.53;;;34.74;24.42
42297;BME280;28985;47.456;19.016;2022-07-03T13:06:27;100378.88;;;34.66;23.82
42297;BME280;28985;47.456;19.016;2022-07-03T13:08:55;100373.78;;;34.49;25.05
42297;BME280;28985;47.456;19.016;2022-07-03T13:11:35;100372.44;;;34.66;24.60
42297;BME280;28985;47.456;19.016;2022-07-03T13:14:13;100370.75;;;34.46;24.84
42297;BME280;28985;47.456;19.016;2022-07-03T13:16:50;100368.47;;;34.72;24.63
42297;BME280;28985;47.456;19.016;2022-07-03T13:19:19;100359.97;;;34.97;24.78
42297;BME280;28985;47.456;19.016;2022-07-03T13:21:46;100358.75;;;35.03;23.98
42297;BME280;28985;47.456;19.016;2022-07-03T13:24:14;100357.19;;;35.16;24.70
42297;BME280;28985;47.456;19.016;2022-07-03T13:26:42;100360.41;;;35.04;24.67
42297;BME280;28985;47.456;19.016;2022-07-03T13:29:12;100349.66;;;35.16;25.05
42297;BME280;28985;47.456;19.016;2022-07-03T13:31:39;100349.31;;;35.18;24.47
42297;BME280;28985;47.456;19.016;2022-07-03T13:34:06;100355.53;;;35.15;24.06
42297;BME280;28985;47.456;19.016;2022-07-03T13:36:33;100360.38;;;35.09;23.46
42297;BME280;28985;47.456;19.016;2022-07-03T13:38:59;100354.97;;;35.32;24.17
42297;BME280;28985;47.456;19.016;2022-07-03T13:41:27;100352.59;;;35.39;24.35
42297;BME280;28985;47.456;19.016;2022-07-03T13:43:54;100349.06;;;35.33;23.97
42297;BME280;28985;47.456;19.016;2022-07-03T13:46:21;100351.25;;;35.37;23.71
42297;BME280;28985;47.456;19.016;2022-07-03T13:48:49;100348.91;;;35.44;23.52
42297;BME280;28985;47.456;19.016;2022-07-03T13:51:16;100352.63;;;35.53;24.12
42297;BME280;28985;47.456;19.016;2022-07-03T13:53:43;100352.50;;;35.44;22.87